createdAt,value
2023-05-19T00:01:17.980Z,2.60
2023-05-19T00:03:57.749Z,2.70
2023-05-19T00:06:33.874Z,3.03
2023-05-19T00:09:06.003Z,3.00
2023-05-19T00:11:36.353Z,3.28
2023-05-19T00:14:05.526Z,2.78
2023-05-19T00:16:32.801Z,3.33
2023-05-19T00:19:01.337Z,3.08
2023-05-19T00:21:29.283Z,2.97
2023-05-19T00:23:56.262Z,3.38
2023-05-19T00:26:23.871Z,2.70
2023-05-19T00:28:56.333Z,3.15
2023-05-19T00:31:24.053Z,3.03
2023-05-19T00:33:52.059Z,2.67
2023-05-19T00:36:18.970Z,3.40
2023-05-19T00:38:48.473Z,3.25
2023-05-19T00:41:15.655Z,2.90
2023-05-19T00:43:42.966Z,3.60
2023-05-19T00:46:11.123Z,2.95
2023-05-19T00:48:38.132Z,3.10
2023-05-19T00:51:06.594Z,2.92
2023-05-19T00:53:34.656Z,3.50
2023-05-19T00:56:03.160Z,3.03
2023-05-19T00:58:32.659Z,3.08
2023-05-19T01:01:03.549Z,3.42
2023-05-19T01:03:33.146Z,3.15
2023-05-19T01:06:07.229Z,2.92
2023-05-19T01:08:36.439Z,3.25
2023-05-19T01:11:08.017Z,2.92
2023-05-19T01:13:36.399Z,3.63
2023-05-19T01:16:32.311Z,2.53
2023-05-19T01:19:01.693Z,3.63
2023-05-19T01:21:53.793Z,2.72
2023-05-19T01:24:58.255Z,3.50
2023-05-19T01:27:37.189Z,3.22
2023-05-19T01:30:33.548Z,3.50
2023-05-19T01:33:03.543Z,3.13
2023-05-19T01:35:31.254Z,2.95
2023-05-19T01:38:00.304Z,3.10
2023-05-19T01:40:28.524Z,3.50
2023-05-19T01:42:58.189Z,4.18
2023-05-19T01:45:27.963Z,3.63
2023-05-19T01:47:58.350Z,2.78
2023-05-19T01:50:26.044Z,3.10
2023-05-19T01:52:53.167Z,2.85
2023-05-19T01:55:21.274Z,3.42
2023-05-19T01:57:59.864Z,3.38
2023-05-19T02:00:46.393Z,3.53
2023-05-19T02:03:26.938Z,4.20
2023-05-19T02:06:08.438Z,3.22
2023-05-19T02:08:42.805Z,3.90
2023-05-19T02:11:42.047Z,3.17
2023-05-19T02:14:16.867Z,3.50
2023-05-19T02:16:47.618Z,3.45
2023-05-19T02:19:34.227Z,2.90
2023-05-19T02:22:02.467Z,3.50
2023-05-19T02:24:29.349Z,3.20
2023-05-19T02:26:56.382Z,3.40
2023-05-19T02:29:23.406Z,3.67
2023-05-19T02:31:51.031Z,3.78
2023-05-19T02:34:19.109Z,3.35
2023-05-19T02:36:46.034Z,3.42
2023-05-19T02:39:13.025Z,3.78
2023-05-19T02:41:39.926Z,3.67
2023-05-19T02:44:07.690Z,3.33
2023-05-19T02:46:34.872Z,3.47
2023-05-19T02:49:01.844Z,3.58
2023-05-19T02:51:28.890Z,3.45
2023-05-19T02:53:58.687Z,3.50
2023-05-19T02:56:26.427Z,3.50
2023-05-19T02:58:53.412Z,3.25
2023-05-19T03:01:22.558Z,3.53
2023-05-19T03:03:49.536Z,3.67
2023-05-19T03:06:18.076Z,3.38
2023-05-19T03:08:45.177Z,3.40
2023-05-19T03:11:12.300Z,3.70
2023-05-19T03:13:39.245Z,3.22
2023-05-19T03:16:08.275Z,3.60
2023-05-19T03:18:36.086Z,4.22
2023-05-19T03:21:03.052Z,3.45
2023-05-19T03:23:30.064Z,3.75
2023-05-19T03:25:57.189Z,3.45
2023-05-19T03:28:24.342Z,3.67
2023-05-19T03:30:51.246Z,3.88
2023-05-19T03:33:21.790Z,3.45
2023-05-19T03:35:48.773Z,3.60
2023-05-19T03:38:17.286Z,4.13
2023-05-19T03:40:51.319Z,3.83
2023-05-19T03:43:18.233Z,3.88
2023-05-19T03:45:53.619Z,3.67
2023-05-19T03:48:46.685Z,3.90
2023-05-19T03:51:16.529Z,3.83
2023-05-19T03:53:45.626Z,3.47
2023-05-19T03:56:13.898Z,3.90
2023-05-19T03:58:44.433Z,4.32
2023-05-19T04:01:11.759Z,3.70
2023-05-19T04:03:38.645Z,3.90
2023-05-19T04:06:05.942Z,3.83
2023-05-19T04:08:32.812Z,3.75
2023-05-19T04:10:59.872Z,3.70
2023-05-19T04:13:26.809Z,3.72
2023-05-19T04:15:53.822Z,3.63
2023-05-19T04:18:20.928Z,3.40
2023-05-19T04:20:47.890Z,4.35
2023-05-19T04:23:14.711Z,3.28
2023-05-19T04:25:42.199Z,3.50
2023-05-19T04:28:09.116Z,3.80
2023-05-19T04:30:38.632Z,4.13
2023-05-19T04:33:05.859Z,3.70
2023-05-19T04:35:33.085Z,3.30
2023-05-19T04:38:02.021Z,3.28
2023-05-19T04:40:32.404Z,3.92
2023-05-19T04:43:01.983Z,3.85
2023-05-19T04:45:30.150Z,3.28
2023-05-19T04:48:00.526Z,3.20
2023-05-19T04:50:32.375Z,3.53
2023-05-19T04:53:00.553Z,3.15
2023-05-19T04:55:28.026Z,3.53
2023-05-19T04:57:54.942Z,3.40
2023-05-19T05:00:25.403Z,3.20
2023-05-19T05:02:59.544Z,3.47
2023-05-19T05:05:29.588Z,3.58
2023-05-19T05:07:57.439Z,4.05
2023-05-19T05:10:27.203Z,3.00
2023-05-19T05:12:55.053Z,3.53
2023-05-19T05:15:22.824Z,3.58
2023-05-19T05:17:50.935Z,2.90
2023-05-19T05:20:19.724Z,3.70
2023-05-19T05:22:47.088Z,2.70
2023-05-19T05:25:16.334Z,3.47
2023-05-19T05:27:43.755Z,3.15
2023-05-19T05:30:11.020Z,3.17
2023-05-19T05:32:38.832Z,3.40
2023-05-19T05:35:13.664Z,3.50
2023-05-19T05:37:40.553Z,3.55
2023-05-19T05:40:08.505Z,3.33
2023-05-19T05:42:36.077Z,3.17
2023-05-19T05:45:03.367Z,2.88
2023-05-19T05:47:30.875Z,3.30
2023-05-19T05:49:58.104Z,3.42
2023-05-19T05:52:30.395Z,3.17
2023-05-19T05:54:58.579Z,3.05
2023-05-19T05:57:25.701Z,2.78
2023-05-19T05:59:52.628Z,2.92
2023-05-19T06:02:19.723Z,2.88
2023-05-19T06:04:46.691Z,3.08
2023-05-19T06:07:14.127Z,3.00
2023-05-19T06:09:41.039Z,3.38
2023-05-19T06:12:09.446Z,3.33
2023-05-19T06:14:41.388Z,3.33
2023-05-19T06:17:29.543Z,3.00
2023-05-19T06:19:57.715Z,3.10
2023-05-19T06:22:25.947Z,3.35
2023-05-19T06:24:53.592Z,3.60
2023-05-19T06:27:20.798Z,3.30
2023-05-19T06:29:47.848Z,3.10
2023-05-19T06:32:15.151Z,3.50
2023-05-19T06:34:42.228Z,3.25
2023-05-19T06:37:09.628Z,3.55
2023-05-19T06:39:38.670Z,3.05
2023-05-19T06:42:05.705Z,3.03
2023-05-19T06:44:56.053Z,2.97
2023-05-19T06:47:23.087Z,3.03
2023-05-19T06:49:51.867Z,2.90
2023-05-19T06:52:18.851Z,2.92
2023-05-19T06:54:45.811Z,3.35
2023-05-19T06:57:17.069Z,3.17
2023-05-19T06:59:46.724Z,3.10
2023-05-19T07:02:14.788Z,2.90
2023-05-19T07:04:43.101Z,3.47
2023-05-19T07:07:12.667Z,3.28
2023-05-19T07:09:40.081Z,3.38
2023-05-19T07:12:07.875Z,3.38
2023-05-19T07:14:36.443Z,3.45
2023-05-19T07:17:03.678Z,3.15
2023-05-19T07:19:31.609Z,3.08
2023-05-19T07:21:59.457Z,3.47
2023-05-19T07:24:27.581Z,3.55
2023-05-19T07:26:54.744Z,3.38
2023-05-19T07:29:21.621Z,3.67
2023-05-19T07:31:48.570Z,2.95
2023-05-19T07:34:15.533Z,3.40
2023-05-19T07:36:42.425Z,3.22
2023-05-19T07:39:09.356Z,3.75
2023-05-19T07:41:36.599Z,3.80
2023-05-19T07:44:07.610Z,3.17
2023-05-19T07:46:35.550Z,3.53
2023-05-19T07:49:02.549Z,3.28
2023-05-19T07:51:29.797Z,2.97
2023-05-19T07:53:57.489Z,3.63
2023-05-19T07:56:24.907Z,2.88
2023-05-19T07:58:51.908Z,3.33
2023-05-19T08:01:18.809Z,3.45
2023-05-19T08:03:45.826Z,3.28
2023-05-19T08:06:12.794Z,3.60
2023-05-19T08:08:39.726Z,3.15
2023-05-19T08:11:06.706Z,2.83
2023-05-19T08:13:34.747Z,3.17
2023-05-19T08:16:01.661Z,3.42
2023-05-19T08:18:31.326Z,3.65
2023-05-19T08:20:58.755Z,3.35
2023-05-19T08:23:25.736Z,2.90
2023-05-19T08:25:53.128Z,3.30
2023-05-19T08:28:19.949Z,2.35
2023-05-19T08:30:46.900Z,2.67
2023-05-19T08:33:13.877Z,2.97
2023-05-19T08:35:40.937Z,2.95
2023-05-19T08:38:07.901Z,2.85
2023-05-19T08:40:37.664Z,2.90
2023-05-19T08:43:04.610Z,2.88
2023-05-19T08:45:34.640Z,2.45
2023-05-19T08:48:02.714Z,3.35
2023-05-19T08:50:39.298Z,3.38
2023-05-19T08:53:33.116Z,3.38
2023-05-19T08:56:17.933Z,2.63
2023-05-19T08:58:46.145Z,2.80
2023-05-19T09:01:16.867Z,3.03
2023-05-19T09:03:45.864Z,2.67
2023-05-19T09:06:13.311Z,2.70
2023-05-19T09:08:42.273Z,2.85
2023-05-19T09:11:10.128Z,2.47
2023-05-19T09:13:37.276Z,2.30
2023-05-19T09:16:04.613Z,2.17
2023-05-19T09:18:31.944Z,3.08
2023-05-19T09:21:00.584Z,2.22
2023-05-19T09:23:29.663Z,2.65
2023-05-19T09:25:57.280Z,2.42
2023-05-19T09:28:28.374Z,2.70
2023-05-19T09:31:08.477Z,3.00
2023-05-19T09:33:38.969Z,2.80
2023-05-19T09:36:08.297Z,2.67
2023-05-19T09:38:36.718Z,2.65
2023-05-19T09:41:04.898Z,2.85
2023-05-19T09:43:33.792Z,2.72
2023-05-19T09:46:08.581Z,2.92
2023-05-19T09:48:36.830Z,2.90
2023-05-19T09:51:06.455Z,2.83
2023-05-19T09:53:35.025Z,2.97
2023-05-19T09:56:04.189Z,2.70
2023-05-19T09:58:37.649Z,2.78
2023-05-19T10:01:05.760Z,3.58
2023-05-19T10:03:34.309Z,2.70
2023-05-19T10:06:01.932Z,3.17
2023-05-19T10:08:30.819Z,2.58
2023-05-19T10:10:58.516Z,2.88
2023-05-19T10:13:27.007Z,3.10
2023-05-19T10:15:59.003Z,3.50
2023-05-19T10:18:28.028Z,3.63
2023-05-19T10:20:55.976Z,3.72
2023-05-19T10:23:24.036Z,4.25
2023-05-19T10:25:56.330Z,4.18
2023-05-19T10:28:28.076Z,3.63
2023-05-19T10:30:59.362Z,3.67
2023-05-19T10:33:52.693Z,4.15
2023-05-19T10:36:47.821Z,3.72
2023-05-19T10:39:20.905Z,3.60
2023-05-19T10:42:13.769Z,3.08
2023-05-19T10:45:13.351Z,3.35
2023-05-19T10:47:43.838Z,4.07
2023-05-19T10:50:11.400Z,3.40
2023-05-19T10:52:39.894Z,4.20
2023-05-19T10:55:17.555Z,4.00
2023-05-19T10:58:00.469Z,2.85
2023-05-19T11:00:29.767Z,3.30
2023-05-19T11:03:16.710Z,3.20
2023-05-19T11:05:48.488Z,3.50
2023-05-19T11:08:17.446Z,3.13
2023-05-19T11:10:46.189Z,3.25
2023-05-19T11:13:23.830Z,3.67
2023-05-19T11:15:50.750Z,3.20
2023-05-19T11:18:19.050Z,2.80
2023-05-19T11:20:58.277Z,4.18
2023-05-19T11:23:26.623Z,3.38
2023-05-19T11:25:56.286Z,3.28
2023-05-19T11:28:28.138Z,3.42
2023-05-19T11:30:57.712Z,2.92
2023-05-19T11:33:29.145Z,3.03
2023-05-19T11:35:59.925Z,3.22
2023-05-19T11:38:28.556Z,3.67
2023-05-19T11:40:56.461Z,3.75
2023-05-19T11:43:24.838Z,2.97
2023-05-19T11:45:52.043Z,3.50
2023-05-19T11:48:21.622Z,3.30
2023-05-19T11:50:48.865Z,3.85
2023-05-19T11:53:22.077Z,3.30
2023-05-19T11:55:49.624Z,3.60
2023-05-19T11:58:17.311Z,3.97
2023-05-19T12:00:48.666Z,3.45
2023-05-19T12:03:17.385Z,3.55
2023-05-19T12:05:48.593Z,3.70
2023-05-19T12:08:19.707Z,3.70
2023-05-19T12:10:52.361Z,3.15
2023-05-19T12:13:20.130Z,3.65
2023-05-19T12:15:50.874Z,4.00
2023-05-19T12:18:17.850Z,3.33
2023-05-19T12:20:44.912Z,3.60
2023-05-19T12:23:12.525Z,3.85
2023-05-19T12:25:39.500Z,3.80
2023-05-19T12:28:07.265Z,3.70
2023-05-19T12:30:35.097Z,4.07
2023-05-19T12:33:03.136Z,3.45
2023-05-19T12:35:34.299Z,3.72
2023-05-19T12:38:05.535Z,4.18
2023-05-19T12:40:34.955Z,4.35
2023-05-19T12:43:02.311Z,3.80
2023-05-19T12:45:33.872Z,3.72
2023-05-19T12:48:05.387Z,4.05
2023-05-19T12:50:34.157Z,4.40
2023-05-19T12:53:02.049Z,3.63
2023-05-19T12:55:30.416Z,3.72
2023-05-19T12:57:58.590Z,4.05
2023-05-19T13:00:28.680Z,4.15
2023-05-19T13:03:02.136Z,4.40
2023-05-19T13:05:30.966Z,4.28
2023-05-19T13:07:58.848Z,3.70
2023-05-19T13:10:29.558Z,3.90
2023-05-19T13:12:57.164Z,4.05
2023-05-19T13:15:26.308Z,4.15
2023-05-19T13:17:54.736Z,4.05
2023-05-19T13:20:22.184Z,4.18
2023-05-19T13:22:49.794Z,4.90
2023-05-19T13:25:17.069Z,4.72
2023-05-19T13:27:48.163Z,4.30
2023-05-19T13:30:16.224Z,4.18
2023-05-19T13:32:43.116Z,4.40
2023-05-19T13:35:11.741Z,4.22
2023-05-19T13:37:39.592Z,3.97
2023-05-19T13:40:07.468Z,3.95
2023-05-19T13:42:35.221Z,3.72
2023-05-19T13:45:02.499Z,4.25
2023-05-19T13:47:29.681Z,4.70
2023-05-19T13:49:57.048Z,4.13
2023-05-19T13:52:25.323Z,4.15
2023-05-19T13:54:54.816Z,4.45
2023-05-19T13:57:22.668Z,4.18
2023-05-19T14:00:02.044Z,3.90
2023-05-19T14:02:39.838Z,4.40
2023-05-19T14:05:07.491Z,4.28
2023-05-19T14:07:35.112Z,4.00
2023-05-19T14:10:03.931Z,4.00
2023-05-19T14:12:41.328Z,4.07
2023-05-19T14:15:14.577Z,4.15
2023-05-19T14:17:42.048Z,4.22
2023-05-19T14:20:09.704Z,4.47
2023-05-19T14:22:36.685Z,4.20
2023-05-19T14:25:03.845Z,6.32
2023-05-19T14:27:30.796Z,4.95
2023-05-19T14:29:57.806Z,6.57
2023-05-19T14:32:24.750Z,4.90
2023-05-19T14:34:52.928Z,4.47
2023-05-19T14:37:20.404Z,4.30
2023-05-19T14:39:47.272Z,3.55
2023-05-19T14:42:14.286Z,4.13
2023-05-19T14:44:41.100Z,4.00
2023-05-19T14:47:08.442Z,3.40
2023-05-19T14:49:35.447Z,3.80
2023-05-19T14:52:02.423Z,3.95
2023-05-19T14:54:29.365Z,4.15
2023-05-19T14:56:56.279Z,3.67
2023-05-19T14:59:23.224Z,4.18
2023-05-19T15:01:50.282Z,3.58
2023-05-19T15:04:17.445Z,3.03
2023-05-19T15:06:46.351Z,4.15
2023-05-19T15:09:15.062Z,4.10
2023-05-19T15:11:42.076Z,3.80
2023-05-19T15:14:09.010Z,3.85
2023-05-19T15:16:35.896Z,4.20
2023-05-19T15:19:02.851Z,4.15
2023-05-19T15:21:29.741Z,4.10
2023-05-19T15:23:56.602Z,4.28
2023-05-19T15:26:23.501Z,6.22
2023-05-19T15:28:52.230Z,3.90
2023-05-19T15:31:19.222Z,4.30
2023-05-19T15:33:46.130Z,4.30
2023-05-19T15:36:16.406Z,4.63
2023-05-19T15:38:43.366Z,5.20
2023-05-19T15:41:11.104Z,4.57
2023-05-19T15:43:38.688Z,5.00
2023-05-19T15:46:05.645Z,5.13
2023-05-19T15:48:33.178Z,5.18
2023-05-19T15:51:00.896Z,4.50
2023-05-19T15:53:28.087Z,5.15
2023-05-19T15:55:55.127Z,5.35
2023-05-19T15:58:22.043Z,5.50
2023-05-19T16:00:49.035Z,5.50
2023-05-19T16:03:15.980Z,5.63
2023-05-19T16:05:45.951Z,5.18
2023-05-19T16:08:12.953Z,5.35
2023-05-19T16:10:39.832Z,5.03
2023-05-19T16:13:06.702Z,5.68
2023-05-19T16:15:34.042Z,5.22
2023-05-19T16:18:00.988Z,5.50
2023-05-19T16:20:29.745Z,4.80
2023-05-19T16:22:56.725Z,5.30
2023-05-19T16:25:24.330Z,16.40
2023-05-19T16:27:52.459Z,7.15
2023-05-19T16:30:19.345Z,9.93
2023-05-19T16:32:46.412Z,12.68
2023-05-19T16:35:13.360Z,5.80
2023-05-19T16:37:49.334Z,6.28
2023-05-19T16:40:16.205Z,6.05
2023-05-19T16:42:43.288Z,6.18
2023-05-19T16:45:10.483Z,5.72
2023-05-19T16:47:37.665Z,6.38
2023-05-19T16:50:05.122Z,5.88
2023-05-19T16:52:32.338Z,5.95
2023-05-19T16:54:59.135Z,5.75
2023-05-19T16:57:26.110Z,5.75
2023-05-19T16:59:53.058Z,5.63
2023-05-19T17:02:19.914Z,5.82
2023-05-19T17:04:46.928Z,6.00
2023-05-19T17:07:15.807Z,5.97
2023-05-19T17:09:43.559Z,5.22
2023-05-19T17:12:10.920Z,5.70
2023-05-19T17:14:37.862Z,6.25
2023-05-19T17:17:05.078Z,6.07
2023-05-19T17:19:32.524Z,5.43
2023-05-19T17:21:59.643Z,5.80
2023-05-19T17:24:28.825Z,5.68
2023-05-19T17:26:55.872Z,5.22
2023-05-19T17:29:22.943Z,5.53
2023-05-19T17:31:49.850Z,5.45
2023-05-19T17:34:16.729Z,5.43
2023-05-19T17:36:43.549Z,5.50
2023-05-19T17:39:10.688Z,5.65
2023-05-19T17:41:37.597Z,5.47
2023-05-19T17:44:06.709Z,6.10
2023-05-19T17:46:38.834Z,6.20
2023-05-19T17:49:06.475Z,5.75
2023-05-19T17:51:33.641Z,5.63
2023-05-19T17:54:01.033Z,5.63
2023-05-19T17:56:33.833Z,5.25
2023-05-19T17:59:01.188Z,5.10
2023-05-19T18:01:28.338Z,5.32
2023-05-19T18:03:55.645Z,5.15
2023-05-19T18:06:25.354Z,6.43
2023-05-19T18:08:55.057Z,5.38
2023-05-19T18:11:22.713Z,5.60
2023-05-19T18:13:49.747Z,5.93
2023-05-19T18:16:16.753Z,6.10
2023-05-19T18:18:46.982Z,5.95
2023-05-19T18:21:17.764Z,5.28
2023-05-19T18:23:45.974Z,6.38
2023-05-19T18:26:13.440Z,6.30
2023-05-19T18:28:41.286Z,6.30
2023-05-19T18:31:17.450Z,5.85
2023-05-19T18:33:45.105Z,6.35
2023-05-19T18:36:12.349Z,6.00
2023-05-19T18:38:39.503Z,5.72
2023-05-19T18:41:07.543Z,6.07
2023-05-19T18:43:34.464Z,5.40
2023-05-19T18:46:04.231Z,5.60
2023-05-19T18:48:32.078Z,5.95
2023-05-19T18:50:59.424Z,6.43
2023-05-19T18:53:26.368Z,5.88
2023-05-19T18:55:53.301Z,5.68
2023-05-19T18:58:20.278Z,5.32
2023-05-19T19:00:47.557Z,5.45
2023-05-19T19:03:14.463Z,5.95
2023-05-19T19:05:41.464Z,5.82
2023-05-19T19:08:08.391Z,5.80
2023-05-19T19:10:39.114Z,5.70
2023-05-19T19:13:06.569Z,4.93
2023-05-19T19:15:33.622Z,5.30
2023-05-19T19:18:00.594Z,5.68
2023-05-19T19:20:27.571Z,5.65
2023-05-19T19:22:54.454Z,5.15
2023-05-19T19:25:23.264Z,5.03
2023-05-19T19:27:50.647Z,5.63
2023-05-19T19:30:17.624Z,5.30
2023-05-19T19:32:44.584Z,5.30
2023-05-19T19:35:11.606Z,5.82
2023-05-19T19:37:38.436Z,5.07
2023-05-19T19:40:06.380Z,16.05
2023-05-19T19:42:33.730Z,8.13
2023-05-19T19:45:00.790Z,5.80
2023-05-19T19:47:27.708Z,5.88
2023-05-19T19:49:54.694Z,5.45
2023-05-19T19:52:21.531Z,5.25
2023-05-19T19:54:48.376Z,5.95
2023-05-19T19:57:17.240Z,5.78
2023-05-19T19:59:44.387Z,4.97
2023-05-19T20:02:11.863Z,5.95
2023-05-19T20:04:38.878Z,5.32
2023-05-19T20:07:06.282Z,5.47
2023-05-19T20:09:33.125Z,5.30
2023-05-19T20:12:00.037Z,5.22
2023-05-19T20:14:27.197Z,5.78
2023-05-19T20:16:54.174Z,5.68
2023-05-19T20:19:21.213Z,5.38
2023-05-19T20:21:48.162Z,5.82
2023-05-19T20:24:15.060Z,5.78
2023-05-19T20:26:41.976Z,6.78
2023-05-19T20:29:08.831Z,4.93
2023-05-19T20:31:35.723Z,5.60
2023-05-19T20:34:02.666Z,5.28
2023-05-19T20:36:29.770Z,5.28
2023-05-19T20:38:56.756Z,5.35
2023-05-19T20:41:23.665Z,5.65
2023-05-19T20:43:50.934Z,5.63
2023-05-19T20:46:17.862Z,5.75
2023-05-19T20:48:44.974Z,5.47
2023-05-19T20:51:11.876Z,5.97
2023-05-19T20:53:38.966Z,4.85
2023-05-19T20:56:07.289Z,5.70
2023-05-19T20:58:34.626Z,5.70
2023-05-19T21:01:01.519Z,5.80
2023-05-19T21:03:28.681Z,6.20
2023-05-19T21:05:55.745Z,5.10
2023-05-19T21:08:23.300Z,5.22
2023-05-19T21:10:50.993Z,5.60
2023-05-19T21:13:18.570Z,5.35
2023-05-19T21:15:45.565Z,5.10
2023-05-19T21:18:12.538Z,5.10
2023-05-19T21:20:39.692Z,5.43
2023-05-19T21:23:06.583Z,5.38
2023-05-19T21:25:33.525Z,5.13
2023-05-19T21:28:00.407Z,5.28
2023-05-19T21:30:27.268Z,5.35
2023-05-19T21:32:54.419Z,5.25
2023-05-19T21:35:21.414Z,5.85
2023-05-19T21:37:48.370Z,6.03
2023-05-19T21:40:15.240Z,5.90
2023-05-19T21:42:42.129Z,6.13
2023-05-19T21:45:09.671Z,6.20
2023-05-19T21:47:36.648Z,6.00
2023-05-19T21:50:03.570Z,5.68
2023-05-19T21:52:31.420Z,5.80
2023-05-19T21:54:58.374Z,6.43
2023-05-19T21:57:25.423Z,6.65
2023-05-19T21:59:52.305Z,6.43
2023-05-19T22:02:19.197Z,6.05
2023-05-19T22:04:46.382Z,7.10
2023-05-19T22:07:13.483Z,6.10
2023-05-19T22:09:40.360Z,6.38
2023-05-19T22:12:07.838Z,6.13
2023-05-19T22:14:35.431Z,6.28
2023-05-19T22:17:02.325Z,6.22
2023-05-19T22:19:29.201Z,5.80
2023-05-19T22:22:09.868Z,6.28
2023-05-19T22:24:40.616Z,6.47
2023-05-19T22:27:08.193Z,6.32
2023-05-19T22:29:37.515Z,6.70
2023-05-19T22:32:06.839Z,5.63
2023-05-19T22:34:33.724Z,5.82
2023-05-19T22:37:00.810Z,6.28
2023-05-19T22:39:27.712Z,5.75
2023-05-19T22:41:54.554Z,6.03
2023-05-19T22:44:21.858Z,5.97
2023-05-19T22:46:48.764Z,6.88
2023-05-19T22:49:15.605Z,6.30
2023-05-19T22:51:42.481Z,6.22
2023-05-19T22:54:10.802Z,6.25
2023-05-19T22:56:37.909Z,6.30
2023-05-19T22:59:04.762Z,6.60
2023-05-19T23:01:31.763Z,6.25
2023-05-19T23:03:58.675Z,6.60
2023-05-19T23:06:25.718Z,6.25
2023-05-19T23:09:00.824Z,6.32
2023-05-19T23:11:27.774Z,6.72
2023-05-19T23:13:54.722Z,6.32
2023-05-19T23:16:21.722Z,6.40
2023-05-19T23:18:48.629Z,6.13
2023-05-19T23:21:15.523Z,5.65
2023-05-19T23:23:42.359Z,6.03
2023-05-19T23:26:09.330Z,5.97
2023-05-19T23:28:36.128Z,6.20
2023-05-19T23:31:03.181Z,5.72
2023-05-19T23:33:30.050Z,6.20
2023-05-19T23:35:56.921Z,5.63
2023-05-19T23:38:23.919Z,5.40
2023-05-19T23:40:51.147Z,6.45
2023-05-19T23:43:18.165Z,6.18
2023-05-19T23:45:45.214Z,6.38
2023-05-19T23:48:12.590Z,6.72
2023-05-19T23:50:39.800Z,5.95
2023-05-19T23:53:06.858Z,6.60
2023-05-19T23:55:34.162Z,6.28
2023-05-19T23:58:02.018Z,6.15
